sensor_id;sensor_type;location;lat;lon;timestamp;P1;durP1;ratioP1;P2;durP2;ratioP2
4819;SDS011;2424;49.696;6.630;2023-07-16T00:01:17;0.90;;;0.80;;
4819;SDS011;2424;49.696;6.630;2023-07-16T00:06:39;0.90;;;0.90;;
4819;SDS011;2424;49.696;6.630;2023-07-16T00:12:01;1.03;;;1.00;;
4819;SDS011;2424;49.696;6.630;2023-07-16T00:17:25;0.90;;;0.90;;
4819;SDS011;2424;49.696;6.630;2023-07-16T00:22:47;1.00;;;0.93;;
4819;SDS011;2424;49.696;6.630;2023-07-16T00:28:09;0.80;;;0.80;;
4819;SDS011;2424;49.696;6.630;2023-07-16T00:33:33;1.33;;;0.93;;
4819;SDS011;2424;49.696;6.630;2023-07-16T00:38:55;1.57;;;1.13;;
4819;SDS011;2424;49.696;6.630;2023-07-16T00:44:17;1.00;;;0.90;;
4819;SDS011;2424;49.696;6.630;2023-07-16T00:49:41;1.87;;;1.00;;
4819;SDS011;2424;49.696;6.630;2023-07-16T00:55:03;0.70;;;0.70;;
4819;SDS011;2424;49.696;6.630;2023-07-16T01:00:26;1.07;;;1.07;;
4819;SDS011;2424;49.696;6.630;2023-07-16T01:05:52;1.20;;;1.20;;
4819;SDS011;2424;49.696;6.630;2023-07-16T01:11:21;2.17;;;1.13;;
4819;SDS011;2424;49.696;6.630;2023-07-16T01:16:44;1.50;;;0.80;;
4819;SDS011;2424;49.696;6.630;2023-07-16T01:28:05;1.00;;;1.00;;
4819;SDS011;2424;49.696;6.630;2023-07-16T01:33:42;1.60;;;1.50;;
4819;SDS011;2424;49.696;6.630;2023-07-16T01:39:04;3.03;;;1.57;;
4819;SDS011;2424;49.696;6.630;2023-07-16T01:44:27;2.37;;;1.10;;
4819;SDS011;2424;49.696;6.630;2023-07-16T01:49:50;1.23;;;1.10;;
4819;SDS011;2424;49.696;6.630;2023-07-16T01:55:12;1.23;;;1.10;;
4819;SDS011;2424;49.696;6.630;2023-07-16T02:00:34;0.77;;;0.77;;
4819;SDS011;2424;49.696;6.630;2023-07-16T02:05:58;1.53;;;0.93;;
4819;SDS011;2424;49.696;6.630;2023-07-16T02:11:20;1.57;;;1.50;;
4819;SDS011;2424;49.696;6.630;2023-07-16T02:16:42;1.07;;;1.00;;
4819;SDS011;2424;49.696;6.630;2023-07-16T02:22:05;1.70;;;0.90;;
4819;SDS011;2424;49.696;6.630;2023-07-16T02:27:28;1.27;;;1.17;;
4819;SDS011;2424;49.696;6.630;2023-07-16T02:32:50;0.90;;;0.90;;
4819;SDS011;2424;49.696;6.630;2023-07-16T02:38:14;6.07;;;0.63;;
4819;SDS011;2424;49.696;6.630;2023-07-16T02:43:36;1.63;;;1.17;;
4819;SDS011;2424;49.696;6.630;2023-07-16T02:48:58;0.97;;;0.97;;
4819;SDS011;2424;49.696;6.630;2023-07-16T02:54:21;0.83;;;0.83;;
4819;SDS011;2424;49.696;6.630;2023-07-16T02:59:43;0.80;;;0.80;;
4819;SDS011;2424;49.696;6.630;2023-07-16T03:05:05;1.37;;;0.90;;
4819;SDS011;2424;49.696;6.630;2023-07-16T03:10:29;5.17;;;1.10;;
4819;SDS011;2424;49.696;6.630;2023-07-16T03:15:51;2.37;;;1.40;;
4819;SDS011;2424;49.696;6.630;2023-07-16T03:21:13;1.27;;;1.20;;
4819;SDS011;2424;49.696;6.630;2023-07-16T03:26:36;2.77;;;1.10;;
4819;SDS011;2424;49.696;6.630;2023-07-16T03:31:58;1.20;;;0.70;;
4819;SDS011;2424;49.696;6.630;2023-07-16T03:37:20;2.00;;;0.87;;
4819;SDS011;2424;49.696;6.630;2023-07-16T03:42:44;0.80;;;0.80;;
4819;SDS011;2424;49.696;6.630;2023-07-16T03:48:06;0.83;;;0.83;;
4819;SDS011;2424;49.696;6.630;2023-07-16T03:53:28;2.00;;;1.53;;
4819;SDS011;2424;49.696;6.630;2023-07-16T03:58:51;5.03;;;1.27;;
4819;SDS011;2424;49.696;6.630;2023-07-16T04:04:13;2.30;;;0.90;;
4819;SDS011;2424;49.696;6.630;2023-07-16T04:09:36;5.07;;;1.23;;
4819;SDS011;2424;49.696;6.630;2023-07-16T04:15:00;0.87;;;0.87;;
4819;SDS011;2424;49.696;6.630;2023-07-16T04:20:22;1.00;;;0.90;;
4819;SDS011;2424;49.696;6.630;2023-07-16T04:25:44;4.80;;;1.37;;
4819;SDS011;2424;49.696;6.630;2023-07-16T04:31:09;0.90;;;0.80;;
4819;SDS011;2424;49.696;6.630;2023-07-16T04:36:31;6.23;;;0.90;;
4819;SDS011;2424;49.696;6.630;2023-07-16T04:41:53;2.97;;;0.87;;
4819;SDS011;2424;49.696;6.630;2023-07-16T04:47:17;1.83;;;0.93;;
4819;SDS011;2424;49.696;6.630;2023-07-16T04:52:38;1.53;;;1.20;;
4819;SDS011;2424;49.696;6.630;2023-07-16T04:58:00;1.43;;;0.83;;
4819;SDS011;2424;49.696;6.630;2023-07-16T05:03:24;1.37;;;1.30;;
4819;SDS011;2424;49.696;6.630;2023-07-16T05:08:46;4.50;;;1.60;;
4819;SDS011;2424;49.696;6.630;2023-07-16T05:14:07;1.50;;;1.40;;
4819;SDS011;2424;49.696;6.630;2023-07-16T05:19:31;2.30;;;1.33;;
4819;SDS011;2424;49.696;6.630;2023-07-16T05:24:53;1.47;;;1.10;;
4819;SDS011;2424;49.696;6.630;2023-07-16T05:30:15;3.70;;;1.37;;
4819;SDS011;2424;49.696;6.630;2023-07-16T05:35:39;1.53;;;0.80;;
4819;SDS011;2424;49.696;6.630;2023-07-16T05:41:01;1.33;;;1.33;;
4819;SDS011;2424;49.696;6.630;2023-07-16T05:46:23;4.10;;;1.20;;
4819;SDS011;2424;49.696;6.630;2023-07-16T05:51:46;2.30;;;1.50;;
4819;SDS011;2424;49.696;6.630;2023-07-16T05:57:08;0.90;;;0.90;;
4819;SDS011;2424;49.696;6.630;2023-07-16T06:02:30;8.33;;;2.00;;
4819;SDS011;2424;49.696;6.630;2023-07-16T06:07:53;2.50;;;1.50;;
4819;SDS011;2424;49.696;6.630;2023-07-16T06:13:15;1.70;;;1.30;;
4819;SDS011;2424;49.696;6.630;2023-07-16T06:18:37;3.00;;;1.47;;
4819;SDS011;2424;49.696;6.630;2023-07-16T06:24:01;1.60;;;1.50;;
4819;SDS011;2424;49.696;6.630;2023-07-16T06:29:23;3.73;;;1.50;;
4819;SDS011;2424;49.696;6.630;2023-07-16T06:34:45;2.43;;;2.27;;
4819;SDS011;2424;49.696;6.630;2023-07-16T06:40:08;2.97;;;2.03;;
4819;SDS011;2424;49.696;6.630;2023-07-16T06:45:31;1.57;;;1.43;;
4819;SDS011;2424;49.696;6.630;2023-07-16T06:50:52;3.50;;;3.20;;
4819;SDS011;2424;49.696;6.630;2023-07-16T06:56:16;1.83;;;1.40;;
4819;SDS011;2424;49.696;6.630;2023-07-16T07:01:38;2.53;;;2.00;;
4819;SDS011;2424;49.696;6.630;2023-07-16T07:06:59;2.80;;;2.53;;
4819;SDS011;2424;49.696;6.630;2023-07-16T07:12:23;3.03;;;1.93;;
4819;SDS011;2424;49.696;6.630;2023-07-16T07:17:45;3.27;;;2.20;;
4819;SDS011;2424;49.696;6.630;2023-07-16T07:23:08;2.13;;;1.80;;
4819;SDS011;2424;49.696;6.630;2023-07-16T07:28:32;4.63;;;2.40;;
4819;SDS011;2424;49.696;6.630;2023-07-16T07:33:54;3.13;;;2.20;;
4819;SDS011;2424;49.696;6.630;2023-07-16T07:39:17;1.80;;;1.70;;
4819;SDS011;2424;49.696;6.630;2023-07-16T07:44:40;8.13;;;1.90;;
4819;SDS011;2424;49.696;6.630;2023-07-16T07:50:03;2.30;;;2.10;;
4819;SDS011;2424;49.696;6.630;2023-07-16T07:55:26;1.50;;;1.50;;
4819;SDS011;2424;49.696;6.630;2023-07-16T08:00:49;2.00;;;1.80;;
4819;SDS011;2424;49.696;6.630;2023-07-16T08:06:11;2.93;;;1.80;;
4819;SDS011;2424;49.696;6.630;2023-07-16T08:11:33;2.17;;;2.00;;
4819;SDS011;2424;49.696;6.630;2023-07-16T08:16:56;6.03;;;1.70;;
4819;SDS011;2424;49.696;6.630;2023-07-16T08:22:18;4.63;;;2.87;;
4819;SDS011;2424;49.696;6.630;2023-07-16T08:27:40;1.97;;;1.87;;
4819;SDS011;2424;49.696;6.630;2023-07-16T08:33:03;3.40;;;2.33;;
4819;SDS011;2424;49.696;6.630;2023-07-16T08:38:26;2.77;;;2.50;;
4819;SDS011;2424;49.696;6.630;2023-07-16T08:43:48;2.03;;;1.93;;
4819;SDS011;2424;49.696;6.630;2023-07-16T08:49:12;6.20;;;2.73;;
4819;SDS011;2424;49.696;6.630;2023-07-16T08:54:34;3.87;;;3.57;;
4819;SDS011;2424;49.696;6.630;2023-07-16T08:59:56;3.27;;;3.00;;
4819;SDS011;2424;49.696;6.630;2023-07-16T09:05:21;3.50;;;2.77;;
4819;SDS011;2424;49.696;6.630;2023-07-16T09:10:43;3.93;;;2.57;;
4819;SDS011;2424;49.696;6.630;2023-07-16T09:16:05;3.53;;;2.90;;
4819;SDS011;2424;49.696;6.630;2023-07-16T09:21:30;3.03;;;2.83;;
4819;SDS011;2424;49.696;6.630;2023-07-16T09:26:54;6.90;;;2.43;;
4819;SDS011;2424;49.696;6.630;2023-07-16T09:32:17;4.67;;;3.60;;
4819;SDS011;2424;49.696;6.630;2023-07-16T09:37:41;2.80;;;2.50;;
4819;SDS011;2424;49.696;6.630;2023-07-16T09:43:03;3.67;;;3.37;;
4819;SDS011;2424;49.696;6.630;2023-07-16T09:48:26;5.30;;;2.87;;
4819;SDS011;2424;49.696;6.630;2023-07-16T09:53:50;3.43;;;3.13;;
4819;SDS011;2424;49.696;6.630;2023-07-16T09:59:14;2.83;;;2.63;;
4819;SDS011;2424;49.696;6.630;2023-07-16T10:04:37;5.40;;;4.03;;
4819;SDS011;2424;49.696;6.630;2023-07-16T10:10:02;5.37;;;3.10;;
4819;SDS011;2424;49.696;6.630;2023-07-16T10:15:29;3.13;;;2.93;;
4819;SDS011;2424;49.696;6.630;2023-07-16T10:20:52;2.83;;;2.63;;
4819;SDS011;2424;49.696;6.630;2023-07-16T10:26:15;5.80;;;3.03;;
4819;SDS011;2424;49.696;6.630;2023-07-16T10:31:37;3.50;;;3.27;;
4819;SDS011;2424;49.696;6.630;2023-07-16T10:37:00;5.33;;;3.00;;
4819;SDS011;2424;49.696;6.630;2023-07-16T10:42:25;3.33;;;2.70;;
4819;SDS011;2424;49.696;6.630;2023-07-16T10:47:52;3.93;;;3.50;;
4819;SDS011;2424;49.696;6.630;2023-07-16T10:53:14;4.50;;;3.30;;
4819;SDS011;2424;49.696;6.630;2023-07-16T10:58:38;5.10;;;3.20;;
4819;SDS011;2424;49.696;6.630;2023-07-16T11:04:01;4.23;;;3.83;;
4819;SDS011;2424;49.696;6.630;2023-07-16T11:09:22;2.87;;;2.70;;
4819;SDS011;2424;49.696;6.630;2023-07-16T11:14:47;3.20;;;3.00;;
4819;SDS011;2424;49.696;6.630;2023-07-16T11:20:10;4.17;;;3.87;;
4819;SDS011;2424;49.696;6.630;2023-07-16T11:25:32;2.80;;;2.60;;
4819;SDS011;2424;49.696;6.630;2023-07-16T11:30:55;2.67;;;2.47;;
4819;SDS011;2424;49.696;6.630;2023-07-16T11:36:17;5.23;;;3.20;;
4819;SDS011;2424;49.696;6.630;2023-07-16T11:41:40;5.80;;;3.10;;
4819;SDS011;2424;49.696;6.630;2023-07-16T11:47:04;5.63;;;2.83;;
4819;SDS011;2424;49.696;6.630;2023-07-16T11:52:26;4.33;;;2.63;;
4819;SDS011;2424;49.696;6.630;2023-07-16T11:57:49;3.40;;;2.20;;
4819;SDS011;2424;49.696;6.630;2023-07-16T12:03:13;2.73;;;2.63;;
4819;SDS011;2424;49.696;6.630;2023-07-16T12:08:35;3.87;;;2.73;;
4819;SDS011;2424;49.696;6.630;2023-07-16T12:13:57;2.37;;;2.00;;
4819;SDS011;2424;49.696;6.630;2023-07-16T12:19:20;4.10;;;2.27;;
4819;SDS011;2424;49.696;6.630;2023-07-16T12:24:42;2.47;;;2.27;;
4819;SDS011;2424;49.696;6.630;2023-07-16T12:30:04;2.83;;;2.17;;
4819;SDS011;2424;49.696;6.630;2023-07-16T12:35:29;3.10;;;2.80;;
4819;SDS011;2424;49.696;6.630;2023-07-16T12:40:51;4.37;;;2.53;;
4819;SDS011;2424;49.696;6.630;2023-07-16T12:46:13;2.67;;;2.47;;
4819;SDS011;2424;49.696;6.630;2023-07-16T12:51:36;2.63;;;2.00;;
4819;SDS011;2424;49.696;6.630;2023-07-16T12:56:59;3.00;;;2.70;;
4819;SDS011;2424;49.696;6.630;2023-07-16T13:02:21;3.67;;;2.73;;
4819;SDS011;2424;49.696;6.630;2023-07-16T13:07:44;4.40;;;3.03;;
4819;SDS011;2424;49.696;6.630;2023-07-16T13:13:07;2.70;;;2.00;;
4819;SDS011;2424;49.696;6.630;2023-07-16T13:18:29;1.60;;;1.50;;
4819;SDS011;2424;49.696;6.630;2023-07-16T13:23:53;2.33;;;2.23;;
4819;SDS011;2424;49.696;6.630;2023-07-16T13:29:14;2.40;;;2.20;;
4819;SDS011;2424;49.696;6.630;2023-07-16T13:34:36;4.90;;;2.73;;
4819;SDS011;2424;49.696;6.630;2023-07-16T13:40:00;2.80;;;2.60;;
4819;SDS011;2424;49.696;6.630;2023-07-16T13:45:23;2.73;;;2.50;;
4819;SDS011;2424;49.696;6.630;2023-07-16T13:50:45;3.77;;;3.00;;
4819;SDS011;2424;49.696;6.630;2023-07-16T13:56:08;2.43;;;2.23;;
4819;SDS011;2424;49.696;6.630;2023-07-16T14:01:30;3.43;;;2.60;;
4819;SDS011;2424;49.696;6.630;2023-07-16T14:06:52;2.20;;;2.10;;
4819;SDS011;2424;49.696;6.630;2023-07-16T14:12:16;2.33;;;2.07;;
4819;SDS011;2424;49.696;6.630;2023-07-16T14:17:38;2.87;;;2.40;;
4819;SDS011;2424;49.696;6.630;2023-07-16T14:23:00;4.10;;;3.17;;
4819;SDS011;2424;49.696;6.630;2023-07-16T14:28:25;4.23;;;2.57;;
4819;SDS011;2424;49.696;6.630;2023-07-16T14:33:46;2.30;;;2.13;;
4819;SDS011;2424;49.696;6.630;2023-07-16T14:39:08;2.70;;;2.50;;
4819;SDS011;2424;49.696;6.630;2023-07-16T14:44:32;2.47;;;2.27;;
4819;SDS011;2424;49.696;6.630;2023-07-16T14:49:54;3.87;;;2.53;;
4819;SDS011;2424;49.696;6.630;2023-07-16T14:55:16;2.27;;;1.90;;
4819;SDS011;2424;49.696;6.630;2023-07-16T15:00:39;2.97;;;2.77;;
4819;SDS011;2424;49.696;6.630;2023-07-16T15:06:01;3.13;;;2.70;;
4819;SDS011;2424;49.696;6.630;2023-07-16T15:11:23;2.90;;;2.50;;
4819;SDS011;2424;49.696;6.630;2023-07-16T15:16:47;2.20;;;1.93;;
4819;SDS011;2424;49.696;6.630;2023-07-16T15:22:09;6.10;;;3.27;;
4819;SDS011;2424;49.696;6.630;2023-07-16T15:27:31;2.60;;;2.40;;
4819;SDS011;2424;49.696;6.630;2023-07-16T15:32:54;6.83;;;3.47;;
4819;SDS011;2424;49.696;6.630;2023-07-16T15:38:16;3.13;;;2.70;;
4819;SDS011;2424;49.696;6.630;2023-07-16T15:43:38;2.17;;;2.07;;
4819;SDS011;2424;49.696;6.630;2023-07-16T15:49:01;2.70;;;2.50;;
4819;SDS011;2424;49.696;6.630;2023-07-16T15:54:24;2.73;;;2.50;;
4819;SDS011;2424;49.696;6.630;2023-07-16T15:59:46;2.70;;;2.50;;
4819;SDS011;2424;49.696;6.630;2023-07-16T16:05:09;3.00;;;2.80;;
4819;SDS011;2424;49.696;6.630;2023-07-16T16:10:31;2.03;;;1.80;;
4819;SDS011;2424;49.696;6.630;2023-07-16T16:15:53;3.10;;;2.90;;
4819;SDS011;2424;49.696;6.630;2023-07-16T16:21:17;5.27;;;3.90;;
4819;SDS011;2424;49.696;6.630;2023-07-16T16:26:39;3.67;;;3.03;;
4819;SDS011;2424;49.696;6.630;2023-07-16T16:32:01;2.70;;;2.57;;
4819;SDS011;2424;49.696;6.630;2023-07-16T16:37:24;14.63;;;3.00;;
4819;SDS011;2424;49.696;6.630;2023-07-16T16:42:46;4.97;;;2.67;;
4819;SDS011;2424;49.696;6.630;2023-07-16T16:48:08;3.00;;;2.40;;
4819;SDS011;2424;49.696;6.630;2023-07-16T16:53:31;2.90;;;2.00;;
4819;SDS011;2424;49.696;6.630;2023-07-16T16:58:53;2.90;;;2.27;;
4819;SDS011;2424;49.696;6.630;2023-07-16T17:04:15;3.13;;;2.93;;
4819;SDS011;2424;49.696;6.630;2023-07-16T17:09:39;2.57;;;2.47;;
4819;SDS011;2424;49.696;6.630;2023-07-16T17:15:01;5.67;;;2.80;;
4819;SDS011;2424;49.696;6.630;2023-07-16T17:20:23;2.70;;;2.50;;
4819;SDS011;2424;49.696;6.630;2023-07-16T17:25:46;2.97;;;2.63;;
4819;SDS011;2424;49.696;6.630;2023-07-16T17:31:08;3.10;;;2.77;;
4819;SDS011;2424;49.696;6.630;2023-07-16T17:36:30;2.13;;;2.03;;
4819;SDS011;2424;49.696;6.630;2023-07-16T17:41:54;2.20;;;2.10;;
4819;SDS011;2424;49.696;6.630;2023-07-16T17:47:15;2.67;;;2.33;;
4819;SDS011;2424;49.696;6.630;2023-07-16T17:52:37;3.10;;;2.53;;
4819;SDS011;2424;49.696;6.630;2023-07-16T17:58:01;2.60;;;2.40;;
4819;SDS011;2424;49.696;6.630;2023-07-16T18:03:24;5.03;;;2.40;;
4819;SDS011;2424;49.696;6.630;2023-07-16T18:08:46;2.10;;;2.00;;
4819;SDS011;2424;49.696;6.630;2023-07-16T18:14:09;2.20;;;2.00;;
4819;SDS011;2424;49.696;6.630;2023-07-16T18:19:33;1.90;;;1.80;;
4819;SDS011;2424;49.696;6.630;2023-07-16T18:24:55;2.60;;;2.10;;
4819;SDS011;2424;49.696;6.630;2023-07-16T18:30:19;2.07;;;1.90;;
4819;SDS011;2424;49.696;6.630;2023-07-16T18:35:41;2.03;;;1.80;;
4819;SDS011;2424;49.696;6.630;2023-07-16T18:41:05;2.23;;;2.03;;
4819;SDS011;2424;49.696;6.630;2023-07-16T18:46:30;2.70;;;2.20;;
4819;SDS011;2424;49.696;6.630;2023-07-16T18:51:53;4.00;;;1.90;;
4819;SDS011;2424;49.696;6.630;2023-07-16T18:57:15;2.10;;;1.90;;
4819;SDS011;2424;49.696;6.630;2023-07-16T19:02:39;2.23;;;2.00;;
4819;SDS011;2424;49.696;6.630;2023-07-16T19:08:01;1.90;;;1.77;;
4819;SDS011;2424;49.696;6.630;2023-07-16T19:13:23;1.60;;;1.60;;
4819;SDS011;2424;49.696;6.630;2023-07-16T19:18:46;1.80;;;1.70;;
4819;SDS011;2424;49.696;6.630;2023-07-16T19:24:08;2.23;;;2.03;;
4819;SDS011;2424;49.696;6.630;2023-07-16T19:29:32;1.90;;;1.80;;
4819;SDS011;2424;49.696;6.630;2023-07-16T19:34:55;2.70;;;1.80;;
4819;SDS011;2424;49.696;6.630;2023-07-16T19:40:17;1.67;;;1.57;;
4819;SDS011;2424;49.696;6.630;2023-07-16T19:45:39;2.17;;;2.00;;
4819;SDS011;2424;49.696;6.630;2023-07-16T19:51:03;1.70;;;1.60;;
4819;SDS011;2424;49.696;6.630;2023-07-16T19:56:25;2.20;;;2.10;;
4819;SDS011;2424;49.696;6.630;2023-07-16T20:01:47;2.50;;;1.73;;
4819;SDS011;2424;49.696;6.630;2023-07-16T20:07:10;1.47;;;1.37;;
4819;SDS011;2424;49.696;6.630;2023-07-16T20:12:33;2.20;;;1.97;;
4819;SDS011;2424;49.696;6.630;2023-07-16T20:17:57;2.57;;;2.03;;
4819;SDS011;2424;49.696;6.630;2023-07-16T20:23:20;2.10;;;2.00;;
4819;SDS011;2424;49.696;6.630;2023-07-16T20:28:42;3.83;;;1.97;;
4819;SDS011;2424;49.696;6.630;2023-07-16T20:34:04;1.70;;;1.60;;
4819;SDS011;2424;49.696;6.630;2023-07-16T20:39:28;2.93;;;2.07;;
4819;SDS011;2424;49.696;6.630;2023-07-16T20:50:38;2.40;;;2.23;;
4819;SDS011;2424;49.696;6.630;2023-07-16T20:56:01;3.23;;;2.40;;
4819;SDS011;2424;49.696;6.630;2023-07-16T21:01:24;1.97;;;1.87;;
4819;SDS011;2424;49.696;6.630;2023-07-16T21:06:46;2.03;;;1.90;;
4819;SDS011;2424;49.696;6.630;2023-07-16T21:12:09;2.40;;;2.30;;
4819;SDS011;2424;49.696;6.630;2023-07-16T21:17:31;2.17;;;2.07;;
4819;SDS011;2424;49.696;6.630;2023-07-16T21:22:54;2.50;;;2.13;;
4819;SDS011;2424;49.696;6.630;2023-07-16T21:28:18;2.10;;;2.00;;
4819;SDS011;2424;49.696;6.630;2023-07-16T21:33:39;3.40;;;2.57;;
4819;SDS011;2424;49.696;6.630;2023-07-16T21:39:01;2.10;;;2.00;;
4819;SDS011;2424;49.696;6.630;2023-07-16T21:44:25;2.87;;;2.13;;
4819;SDS011;2424;49.696;6.630;2023-07-16T21:49:47;2.20;;;2.00;;
4819;SDS011;2424;49.696;6.630;2023-07-16T21:55:09;3.87;;;2.60;;
4819;SDS011;2424;49.696;6.630;2023-07-16T22:00:32;2.97;;;2.37;;
4819;SDS011;2424;49.696;6.630;2023-07-16T22:05:54;2.37;;;2.17;;
4819;SDS011;2424;49.696;6.630;2023-07-16T22:11:16;2.33;;;2.20;;
4819;SDS011;2424;49.696;6.630;2023-07-16T22:16:40;2.20;;;1.83;;
4819;SDS011;2424;49.696;6.630;2023-07-16T22:22:02;2.13;;;2.00;;
4819;SDS011;2424;49.696;6.630;2023-07-16T22:27:24;2.63;;;2.43;;
4819;SDS011;2424;49.696;6.630;2023-07-16T22:32:47;4.50;;;2.30;;
4819;SDS011;2424;49.696;6.630;2023-07-16T22:38:09;2.87;;;2.67;;
4819;SDS011;2424;49.696;6.630;2023-07-16T22:43:31;2.30;;;2.20;;
4819;SDS011;2424;49.696;6.630;2023-07-16T22:48:54;5.10;;;2.20;;
4819;SDS011;2424;49.696;6.630;2023-07-16T22:54:16;3.20;;;2.43;;
4819;SDS011;2424;49.696;6.630;2023-07-16T22:59:38;2.60;;;2.50;;
4819;SDS011;2424;49.696;6.630;2023-07-16T23:05:01;2.60;;;2.43;;
4819;SDS011;2424;49.696;6.630;2023-07-16T23:10:23;2.70;;;2.20;;
4819;SDS011;2424;49.696;6.630;2023-07-16T23:15:45;2.43;;;2.23;;
4819;SDS011;2424;49.696;6.630;2023-07-16T23:21:09;2.73;;;2.30;;
4819;SDS011;2424;49.696;6.630;2023-07-16T23:26:31;3.70;;;2.33;;
4819;SDS011;2424;49.696;6.630;2023-07-16T23:31:53;2.57;;;2.37;;
4819;SDS011;2424;49.696;6.630;2023-07-16T23:37:16;2.97;;;2.70;;
4819;SDS011;2424;49.696;6.630;2023-07-16T23:42:38;2.63;;;2.43;;
4819;SDS011;2424;49.696;6.630;2023-07-16T23:48:00;2.33;;;2.17;;
4819;SDS011;2424;49.696;6.630;2023-07-16T23:53:23;2.60;;;2.40;;
4819;SDS011;2424;49.696;6.630;2023-07-16T23:58:47;2.70;;;2.50;;
